Time;durP1;ratioP1;P1;durP2;ratioP2;P2;SDS_P1;SDS_P2;PMS_P1;PMS_P2;Temp;Humidity;BMP_temperature;BMP_pressure;BME280_temperature;BME280_humidity;BME280_pressure;Samples;Min_cycle;Max_cycle;Signal;HPM_P1;HPM_P2
2021/12/03 00:00:14;;;;;;;115.43;76.32;;;;;;;24.40;32.43;101562.16;5028491;28;20063;-43
2021/12/03 00:02:41;;;;;;;107.18;72.38;;;;;;;24.43;32.36;101565.72;5045643;28;20041;-44
2021/12/03 00:05:10;;;;;;;106.47;69.72;;;;;;;24.36;32.80;101563.81;5046264;28;20028;-44
2021/12/03 00:07:41;;;;;;;104.70;69.20;;;;;;;24.35;32.23;101555.91;5028365;28;20474;-43
2021/12/03 00:10:11;;;;;;;101.28;69.20;;;;;;;24.20;32.80;101545.97;5046045;28;20033;-44
2021/12/03 00:12:41;;;;;;;98.05;67.25;;;;;;;24.20;32.50;101543.34;5045423;28;20021;-44
2021/12/03 00:15:11;;;;;;;98.30;66.40;;;;;;;24.27;32.75;101543.53;5045924;28;20035;-44
2021/12/03 00:17:39;;;;;;;93.85;62.63;;;;;;;24.22;32.43;101536.41;5045300;28;20128;-44
2021/12/03 00:20:11;;;;;;;94.43;60.92;;;;;;;24.23;32.46;101532.94;5045811;28;20130;-43
2021/12/03 00:22:39;;;;;;;94.13;62.17;;;;;;;24.31;32.36;101538.34;5046012;28;20434;-43
2021/12/03 00:25:08;;;;;;;96.15;61.33;;;;;;;24.25;32.64;101529.50;5045525;28;20036;-43
2021/12/03 00:27:37;;;;;;;89.57;59.85;;;;;;;24.22;32.34;101528.56;5045651;28;20033;-44
2021/12/03 00:30:07;;;;;;;90.55;57.92;;;;;;;24.18;32.61;101521.47;5045319;28;20119;-43
2021/12/03 00:32:36;;;;;;;87.57;57.88;;;;;;;24.19;32.30;101531.09;5045337;28;20577;-43
2021/12/03 00:35:06;;;;;;;83.00;57.65;;;;;;;24.21;32.59;101532.91;5044818;28;20040;-45
2021/12/03 00:37:35;;;;;;;78.43;52.63;;;;;;;24.17;32.45;101527.56;5043548;28;20549;-45
2021/12/03 00:40:04;;;;;;;82.47;56.50;;;;;;;24.18;32.54;101519.75;5044773;28;20093;-44
2021/12/03 00:42:33;;;;;;;80.65;54.55;;;;;;;24.21;32.13;101516.28;5045179;28;20403;-44
2021/12/03 00:45:02;;;;;;;85.00;54.90;;;;;;;24.17;32.24;101510.09;5045199;28;20501;-44
2021/12/03 00:47:31;;;;;;;76.20;53.50;;;;;;;24.22;32.18;101502.34;5045550;28;20514;-44
2021/12/03 00:50:00;;;;;;;77.43;51.67;;;;;;;24.24;32.17;101498.88;5044846;28;20063;-45
2021/12/03 00:52:28;;;;;;;78.32;51.78;;;;;;;24.28;31.93;101500.72;5045314;28;20561;-45
2021/12/03 00:54:57;;;;;;;77.03;50.13;;;;;;;24.21;32.19;101506.72;5044939;28;20044;-45
2021/12/03 00:57:26;;;;;;;77.82;53.00;;;;;;;24.19;32.18;101508.41;5044868;28;20055;-46
2021/12/03 00:59:55;;;;;;;74.22;52.00;;;;;;;24.16;32.07;101489.13;5044695;28;20036;-45
2021/12/03 01:02:23;;;;;;;73.22;49.92;;;;;;;24.16;32.30;101479.50;5044835;28;20349;-44
2021/12/03 01:04:52;;;;;;;74.03;48.85;;;;;;;24.22;32.13;101473.50;5027578;28;20029;-43
2021/12/03 01:07:20;;;;;;;75.57;50.10;;;;;;;24.18;31.75;101469.03;5044860;28;20059;-43
2021/12/03 01:09:49;;;;;;;72.85;49.10;;;;;;;24.15;32.33;101456.75;5044199;28;20087;-43
2021/12/03 01:12:18;;;;;;;69.30;46.38;;;;;;;24.09;32.21;101461.88;5044896;28;20040;-43
2021/12/03 01:14:46;;;;;;;65.15;43.97;;;;;;;24.07;32.27;101469.72;5044244;28;20041;-43
2021/12/03 01:17:15;;;;;;;72.22;46.15;;;;;;;24.14;31.86;101470.72;5044393;28;20040;-43
2021/12/03 01:19:44;;;;;;;68.63;45.88;;;;;;;24.17;31.81;101473.41;5026942;28;20033;-43
2021/12/03 01:22:12;;;;;;;72.72;46.95;;;;;;;24.20;31.90;101464.72;5044846;28;20057;-44
2021/12/03 01:24:41;;;;;;;67.05;44.60;;;;;;;24.13;32.23;101463.72;5044691;28;20028;-43
2021/12/03 01:27:10;;;;;;;66.55;44.28;;;;;;;24.11;31.90;101441.81;5044358;28;20033;-43
2021/12/03 01:29:39;;;;;;;69.15;45.70;;;;;;;24.12;31.94;101440.97;5044346;28;20044;-43
2021/12/03 01:32:08;;;;;;;62.55;42.25;;;;;;;24.15;31.94;101450.66;5044290;28;20017;-43
2021/12/03 01:34:36;;;;;;;60.83;42.67;;;;;;;24.11;31.93;101455.81;5043709;28;20036;-43
2021/12/03 01:37:06;;;;;;;62.38;43.13;;;;;;;24.14;31.92;101456.75;5043872;28;20129;-43
2021/12/03 01:39:35;;;;;;;64.43;43.10;;;;;;;24.11;32.10;101455.81;5026631;28;20028;-44
2021/12/03 01:42:02;;;;;;;57.47;42.25;;;;;;;24.06;31.69;101452.22;5044310;28;20053;-43
2021/12/03 01:44:31;;;;;;;64.53;43.35;;;;;;;24.00;31.90;101454.69;5044412;28;20612;-44
2021/12/03 01:46:58;;;;;;;62.83;41.70;;;;;;;24.10;31.84;101447.91;5043784;28;20036;-43
2021/12/03 01:49:27;;;;;;;60.10;42.45;;;;;;;24.15;31.86;101443.66;5043713;28;20029;-44
2021/12/03 01:51:55;;;;;;;57.75;39.78;;;;;;;24.05;31.99;101439.09;5044076;28;20028;-44
2021/12/03 01:54:24;;;;;;;58.20;39.90;;;;;;;24.16;31.97;101436.69;5043808;28;20049;-45
2021/12/03 01:56:52;;;;;;;60.85;41.17;;;;;;;24.14;31.57;101433.16;5044202;28;20481;-44
2021/12/03 01:59:21;;;;;;;56.75;39.45;;;;;;;24.18;31.45;101427.09;5043712;28;20182;-44
2021/12/03 02:01:50;;;;;;;62.83;41.85;;;;;;;24.18;31.86;101411.38;5043410;28;20033;-45
2021/12/03 02:04:18;;;;;;;62.97;41.80;;;;;;;24.11;31.77;101408.66;5043481;28;20390;-44
2021/12/03 02:06:46;;;;;;;59.72;41.22;;;;;;;24.13;31.75;101411.28;5043678;28;20405;-44
2021/12/03 02:09:15;;;;;;;59.28;41.75;;;;;;;24.10;31.57;101403.34;5043579;28;20099;-43
2021/12/03 02:11:44;;;;;;;65.68;42.17;;;;;;;24.08;31.93;101408.56;5043831;28;20116;-44
2021/12/03 02:14:13;;;;;;;62.17;42.45;;;;;;;24.08;31.79;101416.44;5043447;28;20033;-45
2021/12/03 02:16:45;;;;;;;64.60;42.78;;;;;;;24.09;31.59;101410.34;5043751;28;20032;-44
2021/12/03 02:19:14;;;;;;;59.03;40.05;;;;;;;24.06;32.09;101397.19;5043398;28;20049;-44
2021/12/03 02:21:43;;;;;;;58.42;40.55;;;;;;;24.18;31.40;101404.41;5043784;28;20057;-44
2021/12/03 02:24:12;;;;;;;61.78;42.00;;;;;;;24.18;31.77;101408.75;5043773;28;20050;-43
2021/12/03 02:26:42;;;;;;;65.10;41.85;;;;;;;24.16;31.56;101415.72;5043431;28;20066;-44
2021/12/03 02:29:10;;;;;;;62.00;40.50;;;;;;;24.16;31.73;101407.84;5043321;28;20043;-43
2021/12/03 02:31:39;;;;;;;63.13;40.42;;;;;;;24.11;31.90;101410.38;5043429;28;20021;-44
2021/12/03 02:34:08;;;;;;;63.88;41.78;;;;;;;24.10;31.88;101411.22;5042000;28;20033;-44
2021/12/03 02:36:37;;;;;;;59.25;40.05;;;;;;;24.06;31.39;101410.28;5043059;28;20080;-43
2021/12/03 02:39:06;;;;;;;58.58;39.75;;;;;;;24.03;31.76;101404.09;5043257;28;20021;-43
2021/12/03 02:41:34;;;;;;;61.60;41.50;;;;;;;24.07;31.93;101387.59;5043341;28;20025;-43
2021/12/03 02:44:04;;;;;;;61.17;40.08;;;;;;;24.09;31.51;101389.38;5043472;28;20050;-43
2021/12/03 02:46:32;;;;;;;65.75;40.85;;;;;;;24.03;31.59;101385.75;5043247;28;20033;-44
2021/12/03 02:49:01;;;;;;;60.35;39.35;;;;;;;24.02;31.90;101381.38;5043146;28;20039;-43
2021/12/03 02:51:29;;;;;;;59.85;41.05;;;;;;;24.12;31.53;101381.59;5042653;28;20054;-44
2021/12/03 02:53:58;;;;;;;67.72;41.60;;;;;;;24.11;31.81;101382.44;5042822;28;20557;-43
2021/12/03 02:56:27;;;;;;;60.75;41.78;;;;;;;24.18;31.55;101385.16;5042964;28;20033;-43
2021/12/03 02:58:55;;;;;;;62.42;40.63;;;;;;;24.16;31.49;101385.13;5042783;28;20394;-45
2021/12/03 03:01:24;;;;;;;64.18;43.38;;;;;;;24.16;31.25;101385.13;5044966;28;20061;-44
2021/12/03 03:03:52;;;;;;;62.72;41.35;;;;;;;24.11;31.87;101382.44;5046526;28;21133;-44
2021/12/03 03:06:20;;;;;;;65.68;41.45;;;;;;;24.04;31.45;101380.53;5046745;28;20090;-43
2021/12/03 03:08:49;;;;;;;59.75;39.72;;;;;;;24.08;31.89;101386.72;5046210;28;20033;-43
2021/12/03 03:11:17;;;;;;;61.67;41.35;;;;;;;24.06;31.48;101376.22;5047104;28;20107;-43
2021/12/03 03:13:46;;;;;;;60.58;40.00;;;;;;;24.09;31.26;101371.03;5029342;28;20471;-44
2021/12/03 03:16:16;;;;;;;64.38;42.42;;;;;;;24.17;31.51;101355.44;5047182;28;20021;-44
2021/12/03 03:18:44;;;;;;;62.25;39.58;;;;;;;24.16;31.44;101363.28;5046770;28;20045;-43
2021/12/03 03:21:12;;;;;;;62.70;40.45;;;;;;;24.20;31.58;101360.75;5047084;28;20032;-45
2021/12/03 03:23:41;;;;;;;62.85;41.15;;;;;;;24.20;31.44;101367.72;5028865;28;20068;-44
2021/12/03 03:26:10;;;;;;;60.70;39.97;;;;;;;24.21;31.27;101361.63;5028600;28;20029;-44
2021/12/03 03:28:40;;;;;;;63.67;41.45;;;;;;;24.26;31.26;101359.97;5046385;28;20062;-43
2021/12/03 03:31:09;;;;;;;60.97;39.72;;;;;;;24.21;31.42;101356.38;5029150;28;20040;-43
2021/12/03 03:33:38;;;;;;;56.78;37.40;;;;;;;24.22;31.11;101351.19;5046488;28;20513;-43
2021/12/03 03:36:06;;;;;;;60.03;40.35;;;;;;;24.21;31.34;101344.16;5046572;28;20025;-43
2021/12/03 03:38:36;;;;;;;62.42;40.22;;;;;;;24.23;31.01;101336.31;5046484;28;20033;-43
2021/12/03 03:41:03;;;;;;;60.60;38.65;;;;;;;24.17;31.25;101325.72;5046722;28;20029;-44
2021/12/03 03:43:32;;;;;;;62.33;39.33;;;;;;;24.15;31.15;101312.59;5046208;28;20123;-44
2021/12/03 03:46:00;;;;;;;59.30;38.55;;;;;;;24.15;31.54;101309.09;5046117;28;20039;-44
2021/12/03 03:48:29;;;;;;;69.35;43.10;;;;;;;24.17;31.50;101315.22;5045924;28;20029;-44
2021/12/03 03:50:58;;;;;;;59.88;40.47;;;;;;;24.15;31.25;101309.09;5046584;28;20075;-44
2021/12/03 03:53:26;;;;;;;62.05;39.92;;;;;;;24.20;31.37;101312.66;5028646;28;20482;-44
2021/12/03 03:55:55;;;;;;;58.50;38.88;;;;;;;24.16;31.39;101306.50;5046418;28;20043;-43
2021/12/03 03:58:23;;;;;;;60.00;40.72;;;;;;;24.08;31.35;101274.91;5046400;28;20090;-43
2021/12/03 04:00:51;;;;;;;61.17;39.72;;;;;;;24.11;31.64;101288.06;5046233;28;20352;-44
2021/12/03 04:03:20;;;;;;;64.47;40.70;;;;;;;24.17;31.46;101286.41;5045920;28;20040;-44
2021/12/03 04:05:49;;;;;;;57.67;38.60;;;;;;;24.14;31.33;101276.75;5046029;28;20036;-43
2021/12/03 04:08:17;;;;;;;61.10;41.58;;;;;;;24.21;31.31;101276.00;5046162;28;20474;-44
2021/12/03 04:10:46;;;;;;;62.78;40.60;;;;;;;24.14;31.57;101273.25;5028423;28;20037;-44
2021/12/03 04:13:15;;;;;;;62.80;40.25;;;;;;;24.04;31.63;101262.59;5027496;28;20033;-44
2021/12/03 04:15:44;;;;;;;65.28;41.33;;;;;;;24.13;31.57;101248.78;5045505;28;20029;-44
2021/12/03 04:18:12;;;;;;;62.08;40.65;;;;;;;24.14;31.23;101234.81;5045451;28;20516;-45
2021/12/03 04:20:40;;;;;;;59.15;39.60;;;;;;;24.15;31.14;101241.81;5045910;28;20490;-44
2021/12/03 04:23:11;;;;;;;59.60;40.00;;;;;;;24.22;31.08;101237.56;5045703;28;20032;-44
2021/12/03 04:25:40;;;;;;;58.63;39.60;;;;;;;24.12;31.24;101237.41;5045625;28;20479;-44
2021/12/03 04:28:09;;;;;;;56.92;39.65;;;;;;;24.19;31.17;101219.16;5045953;28;20395;-43
2021/12/03 04:30:38;;;;;;;63.25;39.50;;;;;;;24.18;31.17;101215.66;5045636;28;20120;-43
2021/12/03 04:33:07;;;;;;;60.60;40.40;;;;;;;24.19;31.53;101211.28;5045487;28;20041;-44
2021/12/03 04:35:36;;;;;;;60.97;38.85;;;;;;;24.21;31.03;101207.84;5044691;28;20919;-44
2021/12/03 04:38:06;;;;;;;58.83;38.15;;;;;;;24.20;31.32;101207.81;5045437;28;20104;-43
2021/12/03 04:40:37;;;;;;;58.50;37.92;;;;;;;24.20;31.18;101194.72;5045535;28;20033;-44
2021/12/03 04:43:06;;;;;;;61.33;39.72;;;;;;;24.24;31.49;101200.00;5045388;28;20037;-43
2021/12/03 04:45:34;;;;;;;60.40;39.10;;;;;;;24.22;31.52;101190.38;5045098;28;20140;-43
2021/12/03 04:48:05;;;;;;;63.05;40.45;;;;;;;24.25;31.28;101193.06;5045039;28;20435;-44
2021/12/03 04:50:37;;;;;;;58.20;37.80;;;;;;;24.19;31.58;101185.06;5045174;28;20551;-44
2021/12/03 04:53:06;;;;;;;59.30;39.05;;;;;;;24.16;31.60;101164.09;5045183;28;20553;-44
2021/12/03 04:55:36;;;;;;;66.45;39.88;;;;;;;24.26;31.35;101158.97;5045175;28;20078;-43
2021/12/03 04:58:05;;;;;;;57.58;38.97;;;;;;;24.15;31.47;101170.19;5044808;28;20116;-44
2021/12/03 05:00:38;;;;;;;63.78;40.70;;;;;;;24.08;31.27;101162.22;5045052;28;20038;-46
2021/12/03 05:03:08;;;;;;;57.95;38.58;;;;;;;24.06;31.58;101155.19;5044928;28;20471;-43
2021/12/03 05:05:37;;;;;;;58.22;38.58;;;;;;;24.17;31.61;101161.47;5045182;28;20045;-43
2021/12/03 05:08:10;;;;;;;62.45;38.97;;;;;;;24.11;31.31;101153.50;5044703;28;20024;-43
2021/12/03 05:10:41;;;;;;;55.67;36.85;;;;;;;24.18;31.32;101139.66;5044967;28;20028;-44
2021/12/03 05:13:14;;;;;;;61.33;40.00;;;;;;;24.18;31.25;101144.00;5044665;28;20029;-43
2021/12/03 05:15:42;;;;;;;59.58;39.00;;;;;;;24.16;31.39;101140.50;5044866;28;20514;-43
2021/12/03 05:18:14;;;;;;;56.58;38.38;;;;;;;24.18;31.39;101138.75;5044527;28;20264;-43
2021/12/03 05:20:43;;;;;;;60.95;37.67;;;;;;;24.14;31.49;101129.97;5044733;28;20471;-44
2021/12/03 05:23:12;;;;;;;62.10;39.10;;;;;;;24.14;31.09;101122.09;5043870;28;20103;-43
2021/12/03 05:25:41;;;;;;;55.25;35.80;;;;;;;24.07;31.63;101113.28;5044226;28;20474;-43
2021/12/03 05:28:10;;;;;;;57.95;37.03;;;;;;;24.18;31.29;101102.94;5044216;28;20040;-44
2021/12/03 05:30:39;;;;;;;53.60;37.25;;;;;;;24.11;31.20;101099.38;5044695;28;20972;-43
2021/12/03 05:33:08;;;;;;;60.63;37.97;;;;;;;24.12;31.31;101095.00;5043283;28;20109;-44
2021/12/03 05:35:37;;;;;;;55.70;37.90;;;;;;;23.93;31.24;101055.38;5043840;28;20036;-45
2021/12/03 05:38:07;;;;;;;57.03;37.20;;;;;;;24.08;31.64;101087.94;5043976;28;20029;-44
2021/12/03 05:40:35;;;;;;;54.42;36.45;;;;;;;24.11;31.37;101078.41;5044338;28;20033;-44
2021/12/03 05:43:04;;;;;;;58.70;36.90;;;;;;;24.13;31.39;101086.28;5044137;28;20037;-45
2021/12/03 05:45:35;;;;;;;55.67;37.00;;;;;;;24.10;31.66;101080.97;5044088;28;20028;-46
2021/12/03 05:48:04;;;;;;;55.20;37.53;;;;;;;24.11;31.08;101083.66;5026525;28;20040;-44
2021/12/03 05:50:32;;;;;;;63.42;38.65;;;;;;;24.12;31.42;101076.66;5043792;28;20037;-44
2021/12/03 05:53:01;;;;;;;57.30;37.45;;;;;;;24.16;31.45;101074.97;5043798;28;20457;-43
2021/12/03 05:55:30;;;;;;;60.47;39.35;;;;;;;24.17;31.18;101059.25;5043994;28;20147;-43
2021/12/03 05:57:59;;;;;;;59.63;37.42;;;;;;;24.07;31.32;101063.47;5044140;28;20086;-43
2021/12/03 06:00:31;;;;;;;59.97;38.38;;;;;;;24.12;31.43;101055.69;5026339;28;20025;-43
2021/12/03 06:02:59;;;;;;;57.25;38.35;;;;;;;24.03;31.69;101048.56;5043765;28;20477;-44
2021/12/03 06:05:30;;;;;;;55.92;37.25;;;;;;;24.08;31.59;101044.28;5043894;28;20108;-44
2021/12/03 06:07:59;;;;;;;57.15;37.33;;;;;;;24.14;31.29;101040.00;5043756;28;20095;-44
2021/12/03 06:10:27;;;;;;;54.88;35.80;;;;;;;24.09;31.42;101035.56;5044011;28;20032;-44
2021/12/03 06:12:56;;;;;;;53.70;35.83;;;;;;;24.11;31.48;101036.47;5043459;28;20033;-43
2021/12/03 06:15:26;;;;;;;58.58;36.63;;;;;;;24.17;31.47;101037.38;5043322;28;20032;-43
2021/12/03 06:17:54;;;;;;;55.22;36.05;;;;;;;24.13;31.66;101028.59;5043065;28;20045;-43
2021/12/03 06:20:22;;;;;;;52.72;35.20;;;;;;;24.06;31.49;101022.41;5043230;28;20039;-44
2021/12/03 06:22:51;;;;;;;51.30;33.67;;;;;;;24.06;31.47;101024.16;5043828;28;20021;-43
2021/12/03 06:25:20;;;;;;;54.83;36.60;;;;;;;24.08;31.37;101023.31;5043659;28;20028;-44
2021/12/03 06:27:49;;;;;;;55.75;36.22;;;;;;;24.07;31.51;101015.44;5043505;28;20482;-43
2021/12/03 06:30:21;;;;;;;58.05;37.08;;;;;;;24.04;31.42;101020.63;5043681;28;20471;-43
2021/12/03 06:32:50;;;;;;;56.08;36.88;;;;;;;24.11;31.38;101009.34;5043479;28;20032;-44
2021/12/03 06:35:19;;;;;;;53.80;35.92;;;;;;;24.03;31.56;101011.88;5043515;28;20123;-43
2021/12/03 06:37:48;;;;;;;59.42;37.20;;;;;;;24.10;31.26;101008.50;5043592;28;20029;-44
2021/12/03 06:40:20;;;;;;;54.10;35.33;;;;;;;24.15;31.30;101007.69;5043455;28;20119;-44
2021/12/03 06:42:49;;;;;;;55.67;37.38;;;;;;;24.21;31.54;100989.38;5043671;28;20501;-44
2021/12/03 06:45:17;;;;;;;59.95;37.38;;;;;;;24.17;31.44;100984.97;5043297;28;20033;-43
2021/12/03 06:47:46;;;;;;;58.88;36.47;;;;;;;24.06;31.84;100977.84;5043020;28;20510;-43
2021/12/03 06:50:18;;;;;;;54.17;35.50;;;;;;;24.00;31.95;100979.53;5043011;28;20041;-44
2021/12/03 06:52:51;;;;;;;61.33;37.45;;;;;;;24.02;31.79;100973.44;5043097;28;20041;-43
2021/12/03 06:55:21;;;;;;;57.70;36.08;;;;;;;24.04;31.60;100976.94;5043043;28;20120;-44
2021/12/03 06:57:49;;;;;;;57.95;37.92;;;;;;;24.01;31.92;100979.53;5043411;28;20073;-45
2021/12/03 07:00:18;;;;;;;56.58;36.42;;;;;;;24.00;31.93;100980.38;5042580;28;20057;-44
2021/12/03 07:02:46;;;;;;;57.25;37.05;;;;;;;24.12;31.82;100975.31;5043137;28;20114;-44
2021/12/03 07:05:15;;;;;;;61.90;36.22;;;;;;;24.10;31.54;100984.00;5043026;28;20310;-43
2021/12/03 07:07:45;;;;;;;55.47;34.20;;;;;;;24.15;31.72;100979.72;5043199;28;20021;-44
2021/12/03 07:10:13;;;;;;;55.15;33.70;;;;;;;24.18;31.50;100984.09;5043319;28;20040;-44
2021/12/03 07:12:42;;;;;;;48.90;32.58;;;;;;;24.23;31.53;100982.44;5043305;28;20037;-43
2021/12/03 07:15:10;;;;;;;51.85;31.55;;;;;;;24.08;31.86;100976.16;5042788;28;20826;-43
2021/12/03 07:17:38;;;;;;;47.13;30.23;;;;;;;24.11;31.74;100977.91;5042884;28;20553;-43
2021/12/03 07:20:07;;;;;;;45.80;30.23;;;;;;;24.19;31.48;100978.00;5043225;28;20029;-43
2021/12/03 07:22:36;;;;;;;46.17;29.27;;;;;;;24.16;31.56;100965.75;5043197;28;20025;-44
2021/12/03 07:25:05;;;;;;;47.83;29.98;;;;;;;24.16;32.15;100968.38;5042885;28;20220;-43
2021/12/03 07:27:33;;;;;;;47.00;29.52;;;;;;;24.23;31.70;100967.59;5042970;28;20040;-43
2021/12/03 07:30:02;;;;;;;47.97;30.73;;;;;;;24.22;31.53;100955.34;5043301;28;20078;-44
2021/12/03 07:32:31;;;;;;;47.45;29.52;;;;;;;24.21;31.85;100955.31;5042955;28;20123;-43
2021/12/03 07:34:58;;;;;;;47.80;32.25;;;;;;;24.15;32.13;100950.03;5042597;28;20919;-44
2021/12/03 07:37:27;;;;;;;43.03;28.42;;;;;;;24.12;31.92;100949.13;5042699;28;20170;-44
2021/12/03 07:39:56;;;;;;;48.08;30.58;;;;;;;24.22;31.85;100949.22;5042859;28;20052;-46
2021/12/03 07:42:25;;;;;;;49.80;30.88;;;;;;;24.19;31.76;100934.34;5042832;28;20029;-43
2021/12/03 07:44:52;;;;;;;56.25;32.90;;;;;;;24.22;31.70;100933.47;5042544;28;20409;-44
2021/12/03 07:47:20;;;;;;;53.67;31.65;;;;;;;24.26;31.62;100933.53;5044992;28;20112;-44
2021/12/03 07:49:50;;;;;;;53.13;31.33;;;;;;;24.22;31.87;100938.72;5046296;28;20036;-43
2021/12/03 07:52:20;;;;;;;45.85;28.40;;;;;;;24.26;31.77;100936.16;5046665;28;20059;-43
2021/12/03 07:54:49;;;;;;;47.63;30.10;;;;;;;24.30;32.03;100933.56;5046285;28;20494;-46
2021/12/03 07:57:17;;;;;;;50.50;30.70;;;;;;;24.25;31.88;100936.16;5046258;28;20120;-44
2021/12/03 07:59:45;;;;;;;43.78;29.38;;;;;;;24.24;31.92;100926.53;5028215;28;20020;-48
2021/12/03 08:02:13;;;;;;;44.20;29.88;;;;;;;24.32;32.03;100924.00;5045154;28;20445;-47
2021/12/03 08:04:41;;;;;;;49.20;29.45;;;;;;;24.30;31.98;100923.09;5045661;28;20064;-47
2021/12/03 08:07:10;;;;;;;48.47;29.13;;;;;;;24.26;32.14;100922.19;5045843;28;20079;-44
2021/12/03 08:09:38;;;;;;;45.17;30.52;;;;;;;24.26;32.04;100914.31;5028200;28;20044;-45
2021/12/03 08:12:08;;;;;;;46.08;29.05;;;;;;;24.27;32.08;100903.84;5028515;28;20052;-45
2021/12/03 08:14:36;;;;;;;44.70;28.08;;;;;;;24.32;32.13;100911.78;5045558;28;20041;-44
2021/12/03 08:17:05;;;;;;;42.90;25.63;;;;;;;24.27;32.09;100909.06;5045693;28;20552;-44
2021/12/03 08:19:34;;;;;;;49.75;29.20;;;;;;;24.24;32.10;100908.19;5045969;28;20035;-43
2021/12/03 08:22:02;;;;;;;46.58;28.98;;;;;;;24.19;32.39;100909.84;5046019;28;20029;-43
2021/12/03 08:24:34;;;;;;;47.40;28.98;;;;;;;24.19;32.33;100913.38;5045697;28;20053;-44
2021/12/03 08:27:02;;;;;;;43.28;27.63;;;;;;;24.15;32.21;100908.94;5045856;28;20036;-43
2021/12/03 08:29:31;;;;;;;49.95;29.27;;;;;;;24.15;32.45;100910.72;5028070;28;20043;-47
2021/12/03 08:31:59;;;;;;;46.15;28.77;;;;;;;24.08;32.51;100899.25;5045818;28;20283;-44
2021/12/03 08:34:28;;;;;;;42.42;27.02;;;;;;;24.16;32.22;100907.22;5044981;28;20114;-44
2021/12/03 08:36:56;;;;;;;43.63;26.65;;;;;;;24.18;32.81;100892.38;5027410;28;20132;-44
2021/12/03 08:39:25;;;;;;;40.95;26.40;;;;;;;24.21;32.29;100901.16;5027482;28;20025;-44
2021/12/03 08:41:54;;;;;;;39.05;25.73;;;;;;;24.16;32.26;100894.97;5045586;28;20064;-44
2021/12/03 08:44:22;;;;;;;46.42;28.25;;;;;;;24.16;32.66;100901.97;5045409;28;20021;-44
2021/12/03 08:46:58;;;;;;;45.42;27.42;;;;;;;24.12;32.55;100893.19;5045412;28;20028;-44
2021/12/03 08:49:31;;;;;;;45.97;27.50;;;;;;;24.22;32.59;100900.31;5045176;28;20033;-44
2021/12/03 08:54:50;;;;;;;43.33;27.10;;;;;;;24.19;32.82;100897.66;5045125;28;20041;-44
2021/12/03 08:57:21;;;;;;;38.88;25.65;;;;;;;24.34;32.06;100894.28;5044853;28;21039;-44
2021/12/03 08:59:53;;;;;;;43.10;25.50;;;;;;;24.27;32.38;100892.47;5044197;28;20112;-45
2021/12/03 09:02:23;;;;;;;35.30;24.15;;;;;;;24.29;32.50;100898.63;5044811;28;20398;-43
2021/12/03 09:04:52;;;;;;;37.53;24.90;;;;;;;24.20;32.64;100893.28;5027550;28;20053;-43
2021/12/03 09:07:21;;;;;;;41.08;25.13;;;;;;;24.16;32.59;100899.38;5045165;28;20078;-43
2021/12/03 09:09:49;;;;;;;39.33;24.60;;;;;;;24.22;32.79;100895.06;5044754;28;20033;-43
2021/12/03 09:12:18;;;;;;;34.33;22.58;;;;;;;24.20;32.58;100888.03;5044813;28;20056;-45
2021/12/03 09:15:09;;;;;;;33.95;20.73;;;;;;;24.22;32.90;100883.69;5026794;28;20072;-43
2021/12/03 09:17:42;;;;;;;28.13;17.90;;;;;;;24.15;33.23;100879.25;5016312;28;20487;-43
2021/12/03 09:23:06;;;;;;;26.52;16.10;;;;;;;24.16;32.99;100878.41;5036544;28;20036;-44
2021/12/03 09:25:37;;;;;;;22.70;15.48;;;;;;;24.17;33.09;100867.91;5044698;28;20195;-45
2021/12/03 09:28:08;;;;;;;24.10;14.70;;;;;;;24.26;32.72;100872.38;5027426;28;20453;-43
2021/12/03 09:30:39;;;;;;;21.85;14.05;;;;;;;24.24;32.36;100861.84;5044315;28;20036;-44
2021/12/03 09:33:12;;;;;;;19.83;12.95;;;;;;;24.18;33.04;100855.66;5043794;28;20112;-43
2021/12/03 09:35:46;;;;;;;21.02;12.60;;;;;;;24.25;32.85;100862.75;5026504;28;20182;-43
2021/12/03 09:38:15;;;;;;;17.33;11.15;;;;;;;24.25;32.53;100855.75;5044294;28;20028;-43
2021/12/03 09:40:44;;;;;;;17.90;10.85;;;;;;;24.18;32.83;100856.56;5043600;28;20052;-44
2021/12/03 09:43:13;;;;;;;18.15;10.25;;;;;;;24.26;32.69;100843.53;5044282;28;20020;-44
2021/12/03 09:45:51;;;;;;;14.05;9.27;;;;;;;24.18;33.13;100842.56;5043394;28;20521;-44
2021/12/03 09:51:08;;;;;;;13.73;9.05;;;;;;;24.28;32.90;100826.94;5026248;28;20144;-43
2021/12/03 09:56:27;;;;;;;11.73;7.78;;;;;;;24.19;32.72;100823.34;5043906;28;20394;-44
2021/12/03 10:01:50;;;;;;;10.30;7.20;;;;;;;24.18;33.06;100813.75;5034679;28;20049;-43
2021/12/03 10:04:38;;;;;;;12.02;5.93;;;;;;;24.11;32.82;100810.19;5043712;28;20028;-44
2021/12/03 10:13:12;;;;;;;9.30;5.38;;;;;;;24.22;33.05;100802.44;5043540;28;20513;-44
2021/12/03 10:15:18;;;;;;;11.98;5.25;;;;;;;24.20;32.72;100814.63;5039486;28;20049;-44
2021/12/03 10:17:52;;;;;;;8.30;5.25;;;;;;;24.24;32.90;100811.19;5043392;28;20049;-44
2021/12/03 10:20:50;;;;;;;10.73;4.85;;;;;;;24.15;33.20;100808.50;5043422;28;20043;-44
2021/12/03 10:34:25;;;;;;;5.82;3.45;;;;;;;24.20;32.56;100807.66;5038297;28;20072;-43
2021/12/03 10:46:05;;;;;;;4.95;2.70;;;;;;;24.37;32.61;100807.81;5026727;28;20395;-42
2021/12/03 10:56:20;;;;;;;6.28;3.15;;;;;;;24.23;33.28;100793.69;5043224;28;20041;-46
2021/12/03 10:59:10;;;;;;;4.25;2.88;;;;;;;24.28;32.98;100787.63;5042598;28;20029;-44
2021/12/03 11:07:39;;;;;;;4.22;2.70;;;;;;;24.21;33.12;100775.34;5036410;28;20209;-43
2021/12/03 11:19:08;;;;;;;4.03;2.20;;;;;;;24.21;33.00;100751.75;5042358;28;20056;-43
2021/12/03 11:27:15;;;;;;;2.50;1.50;;;;;;;24.33;32.98;100730.00;5043088;28;20478;-43
2021/12/03 13:34:41;;;;;;;;;;;;;;;;;;;;;
2021/12/03 13:44:21;;;;;;;5.50;2.08;;;;;;;24.48;33.84;100620.88;5036351;28;20037;-43
2021/12/03 14:02:08;;;;;;;5.43;2.15;;;;;;;24.52;33.82;100607.78;5039955;28;20449;-44
2021/12/03 14:13:43;;;;;;;7.00;2.08;;;;;;;24.43;33.32;100603.34;5035040;28;20048;-43
2021/12/03 14:43:35;;;;;;;4.82;1.80;;;;;;;24.43;33.83;100589.34;5035432;28;20266;-44
2021/12/03 14:57:52;;;;;;;6.57;2.33;;;;;;;24.45;33.67;100590.25;5044026;28;20041;-44
2021/12/03 15:08:18;;;;;;;5.18;2.53;;;;;;;24.52;33.79;100585.91;5047583;28;20025;-42
2021/12/03 15:22:20;;;;;;;5.65;2.20;;;;;;;24.34;33.71;100576.22;5046754;28;20040;-44
2021/12/03 15:35:07;;;;;;;;;;;;;;;;;;;;;
2021/12/03 15:54:27;;;;;;;6.13;1.92;;;;;;;24.46;34.04;100555.28;5042449;28;20049;-44
2021/12/03 16:05:01;;;;;;;7.40;2.35;;;;;;;24.51;33.65;100553.56;5034363;28;20070;-43
2021/12/03 16:26:14;;;;;;;7.43;2.65;;;;;;;24.53;34.12;100541.34;5046235;28;20489;-44
2021/12/03 16:53:49;;;;;;;5.63;2.20;;;;;;;24.76;33.66;100490.72;5037860;28;20045;-43
2021/12/03 16:56:23;;;;;;;5.78;2.22;;;;;;;24.78;34.11;100496.00;5045217;28;20106;-43
2021/12/03 16:58:52;;;;;;;7.68;2.35;;;;;;;24.70;34.23;100486.34;5044895;28;20032;-43
2021/12/03 17:01:28;;;;;;;6.85;2.70;;;;;;;24.69;33.94;100492.44;5044817;28;20029;-43
2021/12/03 17:04:02;;;;;;;4.82;2.17;;;;;;;24.72;34.21;100481.13;5045152;28;20040;-44
2021/12/03 17:07:24;;;;;;;7.40;2.92;;;;;;;24.77;33.68;100470.63;5044889;28;20222;-43
2021/12/03 17:12:40;;;;;;;8.55;2.83;;;;;;;24.83;34.00;100463.66;5027740;28;20041;-43
2021/12/03 17:17:39;;;;;;;6.72;2.50;;;;;;;24.81;33.50;100454.03;5045176;28;20028;-42
2021/12/03 17:48:23;;;;;;;7.22;2.60;;;;;;;24.95;33.68;100428.69;5040194;28;20045;-42
2021/12/03 17:51:00;;;;;;;5.95;1.65;;;;;;;25.09;33.29;100418.16;5040206;28;20138;-41
2021/12/03 17:56:08;;;;;;;7.85;2.88;;;;;;;25.09;33.43;100401.56;5039488;28;20486;-42
2021/12/03 17:58:48;;;;;;;6.45;2.70;;;;;;;25.09;33.72;100401.56;5043638;28;20091;-43
2021/12/03 18:01:23;;;;;;;6.50;2.67;;;;;;;25.01;33.51;100407.66;5043616;28;20029;-43
2021/12/03 18:14:10;;;;;;;6.63;2.42;;;;;;;24.99;33.55;100385.78;5043825;28;20032;-43